Rome, Wisconsin
Current Conditions -  °F | °C
As of 12:54 PM on Monday 20 Oct 2014 (Local Time) from KISW Reporting Station
Overcast Overcast  
Wind Chill: 13°   Ceiling: 4200
Heat Index: 13°   Visibility: 10mi
Dew Point:   Wind: 9mph
Humidity: 57%   Direction: 340°NNW
Pressure: 29.92"   Gusts: NA
Location:  44.252°N, 89.9853°W
Report Text: KISW 201754Z AUTO 34008KT 10SM BKN042 OVC048 13/04 A2992 RMK AO2 SLP138 T01280044 10139 20061 50002
Loading
Personal Weather Stations






























Interactive Weather Map
Tropical Storm Tracking
New forecast layout! Learn more

10-Day Weather Forecast

Advertisements
Track Severe Weather on mobile